logo
Rechercher aéroport 
image banner adimage banner adimage banner ad
image banner ad

SIUH - Fazenda Flores

Situé à Tamboril, Brazil

ICAO - SIUH, IATA -

Données fournies par Airmate  

Information générale

Coordonnées: S5°2'57" W40°14'3"
Élévation : 1312 feet MSL.
Variation magnétique : -21.31230155° East
Voir autres Aéroports à Ceará

Données opérationnelles

Special qualification required
Heure actuelle UTC:
Heure actuelle locale:
Météo à : - ( 0 km )
METAR: UUOK 171954Z AUTO 22004MPS 9000 -RA ///010/// 19/18 Q1009 RMK QFE739/0985
Voir NOTAMs / SUP AIP / TFR affectant cet aéroport [VIEW]
Fréquences de communication: [VIEW]

Pistes:

Identifiant RWYQFULongueur (ft)Largeur (ft)SurfaceLDA (ft)
10311775GRAVEL
28311775GRAVEL

Coordonnées de l'aéroport

Adresse: Tamboril Brazil

Vue satellite de SIUH